createdAt,value
2022-11-09T00:02:28.590Z,75.85
2022-11-09T00:05:32.350Z,75.96
2022-11-09T00:08:37.802Z,75.86
2022-11-09T00:11:41.389Z,75.68
2022-11-09T00:14:45.186Z,75.99
2022-11-09T00:17:48.730Z,76.23
2022-11-09T00:20:52.343Z,76.29
2022-11-09T00:23:56.863Z,76.24
2022-11-09T00:27:00.625Z,76.31
2022-11-09T00:30:04.995Z,76.22
2022-11-09T00:33:10.701Z,76.30
2022-11-09T00:36:14.791Z,76.46
2022-11-09T00:39:18.745Z,76.26
2022-11-09T00:42:22.536Z,76.54
2022-11-09T00:45:26.145Z,76.50
2022-11-09T00:48:29.849Z,76.47
2022-11-09T00:51:33.551Z,76.54
2022-11-09T00:54:37.150Z,76.43
2022-11-09T00:57:40.861Z,76.43
2022-11-09T01:00:44.526Z,76.73
2022-11-09T01:03:48.566Z,76.78
2022-11-09T01:06:52.296Z,76.72
2022-11-09T01:09:56.095Z,76.78
2022-11-09T01:12:59.933Z,76.75
2022-11-09T01:16:07.852Z,76.59
2022-11-09T01:19:12.650Z,76.87
2022-11-09T01:22:18.402Z,76.86
2022-11-09T01:25:22.102Z,77.11
2022-11-09T01:28:25.774Z,77.30
2022-11-09T01:31:29.520Z,77.02
2022-11-09T01:34:33.646Z,76.92
2022-11-09T01:37:37.440Z,77.08
2022-11-09T01:40:41.564Z,77.41
2022-11-09T01:43:46.382Z,77.29
2022-11-09T01:46:55.315Z,77.36
2022-11-09T01:50:00.783Z,77.42
2022-11-09T01:53:09.216Z,77.52
2022-11-09T01:56:14.815Z,77.42
2022-11-09T01:59:22.279Z,77.26
2022-11-09T02:02:26.073Z,77.42
2022-11-09T02:05:33.642Z,77.49
2022-11-09T02:08:37.910Z,77.81
2022-11-09T02:11:41.659Z,77.68
2022-11-09T02:14:47.761Z,77.86
2022-11-09T02:17:53.739Z,77.88
2022-11-09T02:20:58.638Z,77.80
2022-11-09T02:24:02.761Z,77.75
2022-11-09T02:27:07.088Z,77.93
2022-11-09T02:30:13.683Z,77.90
2022-11-09T02:33:18.019Z,78.03
2022-11-09T02:36:23.043Z,78.02
2022-11-09T02:39:28.670Z,78.23
2022-11-09T02:42:32.644Z,78.12
2022-11-09T02:45:36.316Z,78.00
2022-11-09T02:48:40.056Z,78.00
2022-11-09T02:51:43.679Z,78.26
2022-11-09T02:54:47.674Z,78.43
2022-11-09T02:57:51.324Z,78.30
2022-11-09T03:00:55.059Z,78.18
2022-11-09T03:03:58.792Z,77.98
2022-11-09T03:07:02.524Z,78.24
2022-11-09T03:10:07.971Z,78.44
2022-11-09T03:13:11.700Z,78.50
2022-11-09T03:16:15.461Z,78.53
2022-11-09T03:19:19.170Z,78.74
2022-11-09T03:22:22.893Z,78.81
2022-11-09T03:25:27.061Z,78.95
2022-11-09T03:28:30.738Z,78.67
2022-11-09T03:31:34.503Z,78.73
2022-11-09T03:34:38.262Z,78.55
2022-11-09T03:37:41.967Z,78.41
2022-11-09T03:40:45.733Z,78.65
2022-11-09T03:43:49.394Z,78.73
2022-11-09T03:46:53.074Z,78.62
2022-11-09T03:49:56.842Z,78.65
2022-11-09T03:53:01.222Z,79.06
2022-11-09T03:56:05.218Z,79.11
2022-11-09T03:59:08.986Z,78.90
2022-11-09T04:02:12.666Z,78.74
2022-11-09T04:05:16.630Z,78.98
2022-11-09T04:08:20.515Z,78.98
2022-11-09T04:11:24.160Z,78.86
2022-11-09T04:14:27.824Z,79.08
2022-11-09T04:17:31.638Z,78.87
2022-11-09T04:20:35.281Z,78.91
2022-11-09T04:23:39.050Z,78.92
2022-11-09T04:26:42.897Z,78.90
2022-11-09T04:29:46.434Z,78.95
2022-11-09T04:32:50.102Z,79.00
2022-11-09T04:35:53.873Z,79.00
2022-11-09T04:38:57.510Z,78.96
2022-11-09T04:42:01.531Z,78.73
2022-11-09T04:45:06.566Z,78.83
2022-11-09T04:48:11.989Z,78.96
2022-11-09T04:51:15.634Z,79.27
2022-11-09T04:54:19.383Z,79.60
2022-11-09T04:57:23.053Z,79.51
2022-11-09T05:00:26.859Z,79.34
2022-11-09T05:03:30.659Z,79.33
2022-11-09T05:06:34.593Z,79.25
2022-11-09T05:09:38.533Z,79.25
2022-11-09T05:12:45.876Z,79.24
2022-11-09T05:15:49.893Z,79.16
2022-11-09T05:18:53.446Z,79.42
2022-11-09T05:22:17.217Z,79.54
2022-11-09T05:25:20.859Z,79.60
2022-11-09T05:28:24.448Z,79.67
2022-11-09T05:31:28.807Z,79.74
2022-11-09T05:34:32.829Z,79.72
2022-11-09T05:37:37.833Z,79.51
2022-11-09T05:40:41.600Z,79.77
2022-11-09T05:43:45.579Z,79.73
2022-11-09T05:46:50.095Z,79.92
2022-11-09T05:49:53.845Z,79.71
2022-11-09T05:52:59.747Z,79.89
2022-11-09T05:56:04.703Z,79.88
2022-11-09T05:59:09.381Z,79.82
2022-11-09T06:02:13.350Z,79.85
2022-11-09T06:05:17.302Z,80.02
2022-11-09T06:08:21.100Z,79.99
2022-11-09T06:11:24.752Z,79.92
2022-11-09T06:14:28.347Z,79.97
2022-11-09T06:17:32.121Z,80.27
2022-11-09T06:20:35.891Z,80.41
2022-11-09T06:23:39.631Z,80.27
2022-11-09T06:26:43.398Z,80.42
2022-11-09T06:29:46.936Z,80.53
2022-11-09T06:32:50.646Z,80.56
2022-11-09T06:35:56.466Z,80.49
2022-11-09T06:39:00.461Z,80.60
2022-11-09T06:42:04.344Z,80.69
2022-11-09T06:45:10.242Z,80.57
2022-11-09T06:48:14.198Z,80.49
2022-11-09T06:51:18.210Z,80.63
2022-11-09T06:54:21.853Z,80.62
2022-11-09T06:57:25.556Z,80.78
2022-11-09T07:00:29.479Z,80.92
2022-11-09T07:03:33.100Z,80.79
2022-11-09T07:06:41.177Z,80.95
2022-11-09T07:09:44.953Z,81.14
2022-11-09T07:12:49.476Z,81.27
2022-11-09T07:15:54.866Z,81.40
2022-11-09T07:18:58.757Z,81.51
2022-11-09T07:22:02.501Z,81.67
2022-11-09T07:25:08.136Z,81.86
2022-11-09T07:28:12.742Z,81.75
2022-11-09T07:31:16.468Z,81.77
2022-11-09T07:34:20.166Z,81.99
2022-11-09T07:37:23.879Z,82.08
2022-11-09T07:40:27.507Z,82.15
2022-11-09T07:43:31.350Z,82.24
2022-11-09T07:46:35.542Z,82.47
2022-11-09T07:49:39.378Z,82.58
2022-11-09T07:52:43.023Z,82.61
2022-11-09T07:55:46.687Z,82.91
2022-11-09T07:58:51.744Z,83.00
2022-11-09T08:01:55.618Z,83.12
2022-11-09T08:04:59.278Z,83.16
2022-11-09T08:08:04.828Z,83.50
2022-11-09T08:11:08.599Z,83.50
2022-11-09T08:14:12.783Z,83.55
2022-11-09T08:17:16.544Z,83.61
2022-11-09T08:20:21.168Z,83.76
2022-11-09T08:23:24.855Z,83.92
2022-11-09T08:26:28.479Z,83.96
2022-11-09T08:29:32.064Z,84.02
2022-11-09T08:32:36.033Z,84.06
2022-11-09T08:35:39.780Z,84.18
2022-11-09T08:38:44.962Z,84.37
2022-11-09T08:41:48.512Z,84.30
2022-11-09T08:44:52.199Z,84.17
2022-11-09T08:47:59.540Z,84.15
2022-11-09T08:51:03.226Z,84.21
2022-11-09T08:54:07.362Z,84.14
2022-11-09T08:57:11.992Z,84.31
2022-11-09T09:00:17.667Z,84.33
2022-11-09T09:03:21.345Z,83.99
2022-11-09T09:06:30.668Z,84.05
2022-11-09T09:09:37.178Z,84.09
2022-11-09T09:12:40.946Z,84.13
2022-11-09T09:15:44.489Z,84.32
2022-11-09T09:18:49.807Z,84.13
2022-11-09T09:21:53.906Z,84.00
2022-11-09T09:24:57.563Z,84.02
2022-11-09T09:28:01.153Z,84.05
2022-11-09T09:31:05.026Z,84.01
2022-11-09T09:34:08.899Z,83.73
2022-11-09T09:37:12.552Z,83.64
2022-11-09T09:40:25.307Z,83.48
2022-11-09T09:43:37.181Z,83.41
2022-11-09T09:46:47.323Z,83.33
2022-11-09T09:49:58.460Z,83.03
2022-11-09T09:53:23.871Z,83.02
2022-11-09T09:56:33.973Z,82.80
2022-11-09T09:59:42.330Z,82.64
2022-11-09T10:02:46.193Z,82.55
2022-11-09T10:05:58.519Z,82.22
2022-11-09T10:09:10.124Z,82.13
2022-11-09T10:12:25.673Z,82.08
2022-11-09T10:15:34.396Z,81.80
2022-11-09T10:18:48.038Z,81.75
2022-11-09T10:21:57.804Z,81.67
2022-11-09T10:25:27.333Z,81.43
2022-11-09T10:29:09.129Z,81.19
2022-11-09T10:32:16.385Z,80.86
2022-11-09T10:35:27.566Z,80.62
2022-11-09T10:38:36.902Z,80.31
2022-11-09T10:41:43.681Z,80.22
2022-11-09T10:44:46.698Z,79.95
2022-11-09T10:47:51.195Z,79.71
2022-11-09T10:50:54.145Z,79.45
2022-11-09T10:54:15.429Z,79.29
2022-11-09T10:57:21.254Z,79.04
2022-11-09T11:00:24.667Z,78.79
2022-11-09T11:03:28.409Z,78.74
2022-11-09T11:06:31.513Z,78.45
2022-11-09T11:09:34.588Z,78.23
2022-11-09T11:12:37.437Z,78.00
2022-11-09T11:15:42.025Z,77.85
2022-11-09T11:18:47.269Z,77.76
2022-11-09T11:22:15.381Z,77.59
2022-11-09T11:25:21.340Z,77.51
2022-11-09T11:28:31.858Z,77.14
2022-11-09T11:31:34.795Z,76.79
2022-11-09T11:34:59.313Z,76.67
2022-11-09T11:38:16.776Z,76.47
2022-11-09T11:41:46.387Z,76.29
2022-11-09T11:45:34.070Z,76.02
2022-11-09T11:48:55.650Z,75.93
2022-11-09T11:52:06.390Z,75.69
2022-11-09T11:55:23.930Z,75.42
2022-11-09T11:58:43.825Z,75.18
2022-11-09T12:02:18.348Z,74.92
2022-11-09T12:05:46.102Z,74.69
2022-11-09T12:09:01.827Z,74.67
2022-11-09T12:12:15.058Z,74.20
2022-11-09T12:15:27.943Z,74.00
2022-11-09T12:18:44.453Z,73.86
2022-11-09T12:21:55.402Z,73.71
2022-11-09T12:25:09.586Z,73.47
2022-11-09T12:28:29.376Z,73.45
2022-11-09T12:31:46.716Z,73.16
2022-11-09T12:34:57.105Z,73.05
2022-11-09T12:38:08.206Z,72.79
2022-11-09T12:41:15.741Z,72.72
2022-11-09T12:44:22.679Z,72.53
2022-11-09T12:47:31.712Z,72.44
2022-11-09T12:50:36.157Z,72.29
2022-11-09T12:53:40.377Z,72.13
2022-11-09T12:56:51.770Z,72.08
2022-11-09T12:59:56.081Z,71.95
2022-11-09T13:03:02.223Z,71.70
2022-11-09T13:06:17.796Z,71.70
2022-11-09T13:09:25.318Z,71.31
2022-11-09T13:12:38.715Z,71.22
2022-11-09T13:16:10.948Z,71.12
2022-11-09T13:19:54.280Z,70.90
2022-11-09T13:23:01.660Z,70.79
2022-11-09T13:26:05.628Z,70.74
2022-11-09T13:29:20.418Z,70.57
2022-11-09T13:32:28.830Z,70.37
2022-11-09T13:36:16.469Z,70.34
2022-11-09T13:39:38.504Z,70.29
2022-11-09T13:42:41.676Z,70.20
2022-11-09T13:45:46.279Z,70.31
2022-11-09T13:48:50.499Z,70.15
2022-11-09T13:51:53.981Z,70.08
2022-11-09T13:54:57.213Z,70.07
2022-11-09T13:58:03.790Z,70.05
2022-11-09T14:01:23.886Z,69.94
2022-11-09T14:04:28.365Z,69.93
2022-11-09T14:07:34.738Z,70.08
2022-11-09T14:10:54.735Z,69.99
2022-11-09T14:14:17.702Z,69.75
2022-11-09T14:17:29.064Z,69.80
2022-11-09T14:20:40.831Z,69.69
2022-11-09T14:23:43.813Z,69.87
2022-11-09T14:27:12.404Z,69.85
2022-11-09T14:30:20.864Z,69.73
2022-11-09T14:33:26.016Z,69.90
2022-11-09T14:36:30.535Z,69.74
2022-11-09T14:39:34.498Z,69.74
2022-11-09T14:42:40.795Z,69.75
2022-11-09T14:45:50.646Z,69.78
2022-11-09T14:48:55.173Z,69.85
2022-11-09T14:51:58.775Z,69.87
2022-11-09T14:55:02.082Z,70.00
2022-11-09T14:58:05.371Z,69.95
2022-11-09T15:01:16.211Z,69.99
2022-11-09T15:04:23.075Z,70.18
2022-11-09T15:07:29.855Z,70.15
2022-11-09T15:10:33.815Z,70.11
2022-11-09T15:13:39.495Z,70.05
2022-11-09T15:16:42.833Z,70.09
2022-11-09T15:19:51.220Z,70.13
2022-11-09T15:22:55.885Z,70.26
2022-11-09T15:25:58.865Z,70.33
2022-11-09T15:29:03.244Z,70.29
2022-11-09T15:32:17.568Z,70.52
2022-11-09T15:35:20.944Z,70.62
2022-11-09T15:38:33.373Z,70.66
2022-11-09T15:41:37.377Z,70.62
2022-11-09T15:44:40.346Z,70.39
2022-11-09T15:47:51.380Z,70.51
2022-11-09T15:50:54.570Z,70.85
2022-11-09T15:53:57.514Z,71.00
2022-11-09T15:57:00.505Z,70.96
2022-11-09T16:00:12.612Z,70.82
2022-11-09T16:03:17.349Z,70.94
2022-11-09T16:06:21.810Z,70.96
2022-11-09T16:09:24.750Z,71.05
2022-11-09T16:12:27.640Z,70.93
2022-11-09T16:15:31.140Z,71.03
2022-11-09T16:18:34.628Z,71.02
2022-11-09T16:21:37.628Z,71.30
2022-11-09T16:24:41.542Z,71.53
2022-11-09T16:27:52.214Z,71.69
2022-11-09T16:30:55.226Z,72.15
2022-11-09T16:33:58.703Z,71.94
2022-11-09T16:37:03.461Z,71.77
2022-11-09T16:40:11.871Z,71.62
2022-11-09T16:43:15.152Z,71.57
2022-11-09T16:46:22.667Z,71.88
2022-11-09T16:49:25.712Z,71.94
2022-11-09T16:52:29.031Z,71.86
2022-11-09T16:55:32.221Z,71.88
2022-11-09T16:58:35.620Z,72.13
2022-11-09T17:01:38.564Z,71.99
2022-11-09T17:04:41.523Z,72.01
2022-11-09T17:07:46.432Z,72.26
2022-11-09T17:10:49.343Z,72.41
2022-11-09T17:13:56.531Z,72.25
2022-11-09T17:16:59.495Z,72.44
2022-11-09T17:20:05.096Z,72.34
2022-11-09T17:23:08.343Z,72.47
2022-11-09T17:26:12.358Z,72.70
2022-11-09T17:29:15.858Z,72.70
2022-11-09T17:32:24.375Z,72.79
2022-11-09T17:35:28.227Z,72.86
2022-11-09T17:38:32.632Z,72.98
2022-11-09T17:41:41.502Z,73.18
2022-11-09T17:44:45.755Z,73.08
2022-11-09T17:47:49.205Z,72.97
2022-11-09T17:50:53.305Z,73.17
2022-11-09T17:53:57.366Z,73.11
2022-11-09T17:57:01.762Z,73.26
2022-11-09T18:00:09.845Z,73.24
2022-11-09T18:03:13.323Z,73.10
2022-11-09T18:06:19.382Z,73.08
2022-11-09T18:12:46.044Z,73.22
2022-11-09T18:15:49.619Z,73.28
2022-11-09T18:18:58.208Z,73.27
2022-11-09T18:22:03.042Z,73.54
2022-11-09T18:25:08.482Z,73.52
2022-11-09T18:28:12.908Z,73.45
2022-11-09T18:31:16.167Z,73.28
2022-11-09T18:34:19.154Z,73.35
2022-11-09T18:37:24.224Z,73.26
2022-11-09T18:40:28.000Z,73.37
2022-11-09T18:43:32.142Z,73.21
2022-11-09T18:46:35.434Z,73.46
2022-11-09T18:49:38.417Z,73.58
2022-11-09T18:52:41.704Z,73.68
2022-11-09T18:55:45.145Z,73.82
2022-11-09T18:58:49.994Z,73.63
2022-11-09T19:01:53.433Z,73.61
2022-11-09T19:04:56.422Z,73.68
2022-11-09T19:07:59.322Z,73.87
2022-11-09T19:11:06.508Z,73.89
2022-11-09T19:14:10.087Z,73.84
2022-11-09T19:17:14.710Z,73.95
2022-11-09T19:20:18.275Z,74.03
2022-11-09T19:23:21.322Z,74.06
2022-11-09T19:26:24.312Z,74.00
2022-11-09T19:29:27.306Z,74.25
2022-11-09T19:32:32.412Z,74.17
2022-11-09T19:35:37.381Z,74.27
2022-11-09T19:38:40.673Z,74.31
2022-11-09T19:41:44.276Z,74.24
2022-11-09T19:44:49.845Z,74.40
2022-11-09T19:47:56.807Z,74.31
2022-11-09T19:51:01.041Z,74.16
2022-11-09T19:54:05.775Z,74.25
2022-11-09T19:57:09.483Z,74.42
2022-11-09T20:00:15.754Z,74.60
2022-11-09T20:03:17.921Z,74.76
2022-11-09T20:06:22.837Z,74.79
2022-11-09T20:09:29.655Z,74.88
2022-11-09T20:12:54.149Z,74.86
2022-11-09T20:16:01.914Z,74.99
2022-11-09T20:19:08.765Z,75.17
2022-11-09T20:22:12.599Z,75.03
2022-11-09T20:25:16.509Z,74.81
2022-11-09T20:28:20.562Z,74.84
2022-11-09T20:31:24.701Z,74.93
2022-11-09T20:34:30.559Z,75.23
2022-11-09T20:37:34.263Z,75.37
2022-11-09T20:40:37.914Z,75.42
2022-11-09T20:43:42.287Z,75.48
2022-11-09T20:46:45.851Z,75.57
2022-11-09T20:49:49.538Z,75.77
2022-11-09T20:52:53.310Z,75.63
2022-11-09T20:55:56.849Z,75.57
2022-11-09T20:59:00.481Z,75.49
2022-11-09T21:02:04.332Z,75.67
2022-11-09T21:05:08.839Z,75.85
2022-11-09T21:08:12.563Z,75.73
2022-11-09T21:11:16.720Z,75.53
2022-11-09T21:14:20.490Z,75.47
2022-11-09T21:17:24.577Z,75.58
2022-11-09T21:20:28.278Z,75.71
2022-11-09T21:23:50.177Z,75.50
2022-11-09T21:27:11.694Z,75.64
2022-11-09T21:30:15.836Z,75.73
2022-11-09T21:33:19.478Z,75.73
2022-11-09T21:36:23.168Z,75.99
2022-11-09T21:39:26.845Z,76.01
2022-11-09T21:42:30.605Z,75.95
2022-11-09T21:45:34.251Z,75.76
2022-11-09T21:48:37.865Z,75.93
2022-11-09T21:51:41.859Z,76.07
2022-11-09T21:54:45.627Z,76.08
2022-11-09T21:57:49.935Z,76.19
2022-11-09T22:00:53.601Z,76.21
2022-11-09T22:03:57.500Z,76.18
2022-11-09T22:07:01.189Z,76.34
2022-11-09T22:10:10.515Z,76.37
2022-11-09T22:13:33.606Z,76.37
2022-11-09T22:16:37.415Z,76.50
2022-11-09T22:19:59.451Z,76.35
2022-11-09T22:23:06.782Z,76.70
2022-11-09T22:26:10.516Z,76.71
2022-11-09T22:29:14.193Z,76.67
2022-11-09T22:32:18.063Z,76.73
2022-11-09T22:35:21.715Z,76.49
2022-11-09T22:38:25.885Z,76.38
2022-11-09T22:41:29.551Z,76.58
2022-11-09T22:44:33.400Z,76.64
2022-11-09T22:47:37.005Z,76.47
2022-11-09T22:50:40.655Z,76.50
2022-11-09T22:53:47.694Z,76.50
2022-11-09T22:56:51.355Z,76.68
2022-11-09T22:59:55.053Z,76.79
2022-11-09T23:02:58.290Z,76.97
2022-11-09T23:06:05.989Z,77.03
2022-11-09T23:09:09.093Z,77.27
2022-11-09T23:12:12.083Z,77.23
2022-11-09T23:15:15.377Z,76.78
2022-11-09T23:18:41.960Z,76.86
2022-11-09T23:21:44.820Z,77.25
2022-11-09T23:25:06.369Z,77.20
2022-11-09T23:28:11.403Z,76.94
2022-11-09T23:31:18.893Z,77.07
2022-11-09T23:34:22.164Z,77.02
2022-11-09T23:37:25.149Z,76.87
2022-11-09T23:40:28.878Z,76.88
2022-11-09T23:43:32.254Z,76.89
2022-11-09T23:46:35.109Z,76.83
2022-11-09T23:49:37.965Z,76.84
2022-11-09T23:52:40.914Z,77.03
2022-11-09T23:55:43.801Z,77.08
2022-11-09T23:58:51.547Z,76.87
